createdAt,value
2023-02-25T00:00:54.953Z,96730.97
2023-02-25T00:03:29.337Z,96729.47
2023-02-25T00:06:03.359Z,96736.38
2023-02-25T00:08:37.119Z,96737.84
2023-02-25T00:11:10.298Z,96731.84
2023-02-25T00:13:44.607Z,96739.03
2023-02-25T00:16:18.673Z,96735.63
2023-02-25T00:18:57.030Z,96743.53
2023-02-25T00:21:30.269Z,96733.56
2023-02-25T00:24:15.596Z,96734.59
2023-02-25T00:26:50.244Z,96744.53
2023-02-25T00:29:23.384Z,96746.22
2023-02-25T00:31:56.836Z,96748.06
2023-02-25T00:34:31.497Z,96736.09
2023-02-25T00:37:04.973Z,96736.38
2023-02-25T00:39:43.021Z,96734.41
2023-02-25T00:42:18.307Z,96732.09
2023-02-25T00:44:52.250Z,96730.78
2023-02-25T00:47:25.269Z,96734.72
2023-02-25T00:49:59.707Z,96735.41
2023-02-25T00:52:34.249Z,96747.06
2023-02-25T00:55:08.460Z,96736.25
2023-02-25T00:57:43.166Z,96740.72
2023-02-25T01:00:17.390Z,96756.09
2023-02-25T01:02:50.469Z,96752.38
2023-02-25T01:05:25.459Z,96744.50
2023-02-25T01:07:58.648Z,96747.38
2023-02-25T01:10:31.643Z,96730.50
2023-02-25T01:13:04.854Z,96745.19
2023-02-25T01:15:38.098Z,96745.44
2023-02-25T01:18:11.266Z,96748.38
2023-02-25T01:20:45.613Z,96741.66
2023-02-25T01:23:18.636Z,96746.53
2023-02-25T01:25:51.639Z,96752.53
2023-02-25T01:28:24.653Z,96756.75
2023-02-25T01:30:57.791Z,96762.78
2023-02-25T01:33:30.879Z,96765.50
2023-02-25T01:36:07.023Z,96758.69
2023-02-25T01:38:40.092Z,96750.13
2023-02-25T01:41:13.181Z,96749.50
2023-02-25T01:44:06.112Z,96753.34
2023-02-25T01:46:40.721Z,96748.72
2023-02-25T01:49:19.143Z,96766.00
2023-02-25T01:51:58.339Z,96766.69
2023-02-25T01:54:32.522Z,96779.81
2023-02-25T01:57:11.161Z,96787.44
2023-02-25T01:59:45.785Z,96785.66
2023-02-25T02:02:22.522Z,96783.94
2023-02-25T02:04:56.272Z,96785.91
2023-02-25T02:07:30.698Z,96781.84
2023-02-25T02:10:04.710Z,96775.72
2023-02-25T02:12:41.230Z,96765.97
2023-02-25T02:15:16.665Z,96756.81
2023-02-25T02:17:57.306Z,96751.63
2023-02-25T02:20:34.948Z,96759.06
2023-02-25T02:23:47.214Z,96763.13
2023-02-25T02:26:51.925Z,96760.72
2023-02-25T02:30:07.610Z,96767.81
2023-02-25T02:32:49.804Z,96778.16
2023-02-25T02:35:30.642Z,96766.28
2023-02-25T02:38:13.743Z,96775.34
2023-02-25T02:40:58.065Z,96782.34
2023-02-25T02:43:42.404Z,96786.28
2023-02-25T02:46:22.072Z,96790.22
2023-02-25T02:49:06.581Z,96799.94
2023-02-25T02:51:45.087Z,96796.97
2023-02-25T02:54:20.154Z,96800.38
2023-02-25T02:56:57.303Z,96805.91
2023-02-25T02:59:36.316Z,96796.53
2023-02-25T03:02:14.588Z,96804.06
2023-02-25T03:04:55.092Z,96804.63
2023-02-25T03:07:30.098Z,96799.38
2023-02-25T03:10:08.586Z,96809.06
2023-02-25T03:12:41.927Z,96804.25
2023-02-25T03:15:15.514Z,96808.34
2023-02-25T03:17:55.103Z,96816.16
2023-02-25T03:20:35.230Z,96813.41
2023-02-25T03:23:15.806Z,96819.44
2023-02-25T03:25:53.532Z,96817.34
2023-02-25T03:28:30.984Z,96822.59
2023-02-25T03:31:08.266Z,96821.91
2023-02-25T03:33:47.891Z,96822.28
2023-02-25T03:36:28.064Z,96829.88
2023-02-25T03:39:08.316Z,96828.69
2023-02-25T03:41:47.685Z,96834.06
2023-02-25T03:44:26.803Z,96832.13
2023-02-25T03:47:01.368Z,96832.69
2023-02-25T03:49:42.162Z,96830.16
2023-02-25T03:52:21.342Z,96830.84
2023-02-25T03:54:57.123Z,96833.50
2023-02-25T03:57:38.213Z,96828.25
2023-02-25T04:00:19.130Z,96824.72
2023-02-25T04:02:52.933Z,96847.97
2023-02-25T04:05:27.644Z,96842.41
2023-02-25T04:08:02.103Z,96846.22
2023-02-25T04:10:35.198Z,96850.03
2023-02-25T04:13:08.385Z,96864.00
2023-02-25T04:15:42.213Z,96866.16
2023-02-25T04:18:15.962Z,96860.22
2023-02-25T04:20:49.138Z,96866.16
2023-02-25T04:23:23.721Z,96851.38
2023-02-25T04:25:56.776Z,96850.22
2023-02-25T04:28:29.828Z,96844.56
2023-02-25T04:31:03.062Z,96844.00
2023-02-25T04:33:36.174Z,96851.56
2023-02-25T04:36:28.184Z,96849.06
2023-02-25T04:39:06.302Z,96855.75
2023-02-25T04:41:39.756Z,96856.53
2023-02-25T04:44:12.998Z,96857.41
2023-02-25T04:46:46.149Z,96863.53
2023-02-25T04:49:21.347Z,96862.66
2023-02-25T04:51:54.609Z,96861.13
2023-02-25T04:54:29.152Z,96868.69
2023-02-25T04:57:02.262Z,96867.72
2023-02-25T04:59:35.430Z,96863.53
2023-02-25T05:02:09.125Z,96860.91
2023-02-25T05:04:42.624Z,96860.81
2023-02-25T05:07:15.747Z,96869.78
2023-02-25T05:09:50.126Z,96871.41
2023-02-25T05:12:23.202Z,96875.69
2023-02-25T05:14:56.322Z,96874.16
2023-02-25T05:17:29.350Z,96876.78
2023-02-25T05:20:02.703Z,96871.72
2023-02-25T05:22:36.274Z,96875.78
2023-02-25T05:25:12.564Z,96868.13
2023-02-25T05:27:45.708Z,96869.97
2023-02-25T05:30:19.644Z,96874.16
2023-02-25T05:32:52.877Z,96872.38
2023-02-25T05:35:26.053Z,96871.31
2023-02-25T05:37:59.308Z,96865.28
2023-02-25T05:40:36.179Z,96859.66
2023-02-25T05:43:09.863Z,96865.94
2023-02-25T05:45:42.990Z,96875.50
2023-02-25T05:48:16.103Z,96879.38
2023-02-25T05:50:50.562Z,96888.31
2023-02-25T05:53:23.657Z,96891.63
2023-02-25T05:55:58.005Z,96891.44
2023-02-25T05:58:31.092Z,96896.50
2023-02-25T06:01:11.375Z,96904.63
2023-02-25T06:03:46.467Z,96898.81
2023-02-25T06:06:23.186Z,96900.69
2023-02-25T06:08:56.694Z,96901.69
2023-02-25T06:11:31.983Z,96900.94
2023-02-25T06:14:05.072Z,96899.78
2023-02-25T06:16:40.410Z,96904.16
2023-02-25T06:19:14.025Z,96906.00
2023-02-25T06:21:47.072Z,96905.63
2023-02-25T06:24:20.104Z,96902.41
2023-02-25T06:26:54.552Z,96903.59
2023-02-25T06:29:27.691Z,96908.53
2023-02-25T06:32:01.424Z,96915.38
2023-02-25T06:34:34.876Z,96920.44
2023-02-25T06:37:08.746Z,96925.50
2023-02-25T06:39:43.429Z,96927.03
2023-02-25T06:42:18.025Z,96931.63
2023-02-25T06:44:51.286Z,96923.25
2023-02-25T06:47:24.381Z,96923.91
2023-02-25T06:49:58.989Z,96918.31
2023-02-25T06:52:32.910Z,96917.91
2023-02-25T06:55:07.795Z,96916.56
2023-02-25T06:57:42.279Z,96918.78
2023-02-25T07:00:16.405Z,96922.03
2023-02-25T07:02:49.509Z,96925.34
2023-02-25T07:05:22.655Z,96927.34
2023-02-25T07:07:55.781Z,96924.03
2023-02-25T07:10:29.074Z,96924.94
2023-02-25T07:13:03.603Z,96928.03
2023-02-25T07:15:37.219Z,96933.59
2023-02-25T07:18:10.551Z,96930.47
2023-02-25T07:20:44.023Z,96930.78
2023-02-25T07:23:17.055Z,96933.81
2023-02-25T07:25:50.202Z,96942.47
2023-02-25T07:28:24.651Z,96952.78
2023-02-25T07:30:57.783Z,96950.56
2023-02-25T07:33:31.679Z,96951.75
2023-02-25T07:36:05.334Z,96931.97
2023-02-25T07:38:39.103Z,96936.06
2023-02-25T07:41:15.597Z,96945.00
2023-02-25T07:43:50.094Z,96945.91
2023-02-25T07:46:23.254Z,96935.97
2023-02-25T07:48:56.339Z,96931.31
2023-02-25T07:51:29.673Z,96932.00
2023-02-25T07:54:02.927Z,96933.44
2023-02-25T07:56:36.049Z,96930.81
2023-02-25T07:59:11.314Z,96927.69
2023-02-25T08:01:44.411Z,96920.00
2023-02-25T08:04:17.658Z,96928.56
2023-02-25T08:06:51.615Z,96919.69
2023-02-25T08:09:24.702Z,96925.38
2023-02-25T08:11:57.755Z,96915.75
2023-02-25T08:14:32.114Z,96914.69
2023-02-25T08:17:05.268Z,96911.44
2023-02-25T08:19:38.385Z,96900.84
2023-02-25T08:22:11.941Z,96908.44
2023-02-25T08:24:44.997Z,96913.25
2023-02-25T08:27:18.024Z,96925.28
2023-02-25T08:29:52.471Z,96927.13
2023-02-25T08:32:27.515Z,96937.19
2023-02-25T08:35:00.683Z,96943.72
2023-02-25T08:37:34.230Z,96945.69
2023-02-25T08:40:10.746Z,96937.81
2023-02-25T08:42:43.786Z,96931.66
2023-02-25T08:45:18.574Z,96931.59
2023-02-25T08:47:51.622Z,96937.03
2023-02-25T08:50:24.970Z,96938.50
2023-02-25T08:52:58.903Z,96939.03
2023-02-25T08:55:35.286Z,96943.75
2023-02-25T08:58:09.098Z,96935.88
2023-02-25T09:00:43.665Z,96932.78
2023-02-25T09:03:16.761Z,96935.28
2023-02-25T09:05:53.494Z,96928.00
2023-02-25T09:08:27.836Z,96931.75
2023-02-25T09:11:00.840Z,96925.38
2023-02-25T09:13:33.995Z,96920.63
2023-02-25T09:16:09.349Z,96922.50
2023-02-25T09:18:42.568Z,96931.09
2023-02-25T09:21:16.324Z,96928.91
2023-02-25T09:23:51.263Z,96930.78
2023-02-25T09:26:24.379Z,96929.94
2023-02-25T09:28:57.835Z,96928.81
2023-02-25T09:31:33.718Z,96928.16
2023-02-25T09:34:13.894Z,96931.47
2023-02-25T09:36:47.221Z,96923.75
2023-02-25T09:39:20.272Z,96927.72
2023-02-25T09:41:57.401Z,96926.00
2023-02-25T09:44:33.928Z,96930.16
2023-02-25T09:47:19.313Z,96929.19
2023-02-25T09:49:57.669Z,96931.03
2023-02-25T09:52:34.953Z,96922.41
2023-02-25T09:55:17.145Z,96923.25
2023-02-25T09:58:03.990Z,96928.81
2023-02-25T10:00:44.347Z,96927.81
2023-02-25T10:03:26.594Z,96928.69
2023-02-25T10:06:05.670Z,96932.22
2023-02-25T10:08:45.878Z,96934.16
2023-02-25T10:11:30.562Z,96926.81
2023-02-25T10:14:17.111Z,96928.16
2023-02-25T10:17:03.398Z,96927.56
2023-02-25T10:19:55.249Z,96928.63
2023-02-25T10:22:43.151Z,96930.16
2023-02-25T10:25:20.054Z,96937.72
2023-02-25T10:27:58.393Z,96926.72
2023-02-25T10:30:38.087Z,96919.50
2023-02-25T10:33:21.342Z,96922.91
2023-02-25T10:36:02.349Z,96927.94
2023-02-25T10:38:36.460Z,96919.56
2023-02-25T10:41:09.702Z,96918.88
2023-02-25T10:43:43.714Z,96912.06
2023-02-25T10:46:23.302Z,96919.75
2023-02-25T10:49:00.139Z,96918.34
2023-02-25T10:51:34.608Z,96906.25
2023-02-25T10:54:15.008Z,96909.13
2023-02-25T10:56:49.832Z,96905.94
2023-02-25T10:59:31.649Z,96906.34
2023-02-25T11:02:23.548Z,96910.09
2023-02-25T11:38:44.734Z,96895.97
2023-02-25T11:41:22.580Z,96896.69
2023-02-25T11:43:55.995Z,96907.16
2023-02-25T11:46:33.894Z,96900.16
2023-02-25T11:49:19.168Z,96900.16
2023-02-25T11:52:02.259Z,96907.34
2023-02-25T11:54:47.942Z,96894.53
2023-02-25T11:57:34.063Z,96897.53
2023-02-25T12:00:25.510Z,96893.44
2023-02-25T12:03:19.644Z,96900.31
2023-02-25T12:06:02.358Z,96893.00
2023-02-25T12:08:50.139Z,96902.53
2023-02-25T12:12:05.857Z,96898.25
2023-02-25T12:15:31.382Z,96904.38
2023-02-25T12:19:05.357Z,96899.16
2023-02-25T12:22:14.792Z,96904.63
2023-02-25T12:25:12.276Z,96897.28
2023-02-25T12:28:45.035Z,96891.66
2023-02-25T12:32:10.948Z,96892.72
2023-02-25T12:35:32.001Z,96886.69
2023-02-25T12:38:54.896Z,96882.25
2023-02-25T12:41:40.426Z,96885.28
2023-02-25T12:44:49.617Z,96877.13
2023-02-25T12:47:42.914Z,96880.56
2023-02-25T12:50:32.283Z,96877.16
2023-02-25T12:53:29.267Z,96875.34
2023-02-25T12:56:23.115Z,96875.00
2023-02-25T12:59:39.365Z,96879.72
2023-02-25T13:02:43.977Z,96878.81
2023-02-25T13:05:49.525Z,96876.53
2023-02-25T13:09:01.987Z,96879.78
2023-02-25T13:12:10.007Z,96869.63
2023-02-25T13:14:51.094Z,96868.13
2023-02-25T13:17:43.849Z,96864.03
2023-02-25T13:20:37.871Z,96865.16
2023-02-25T13:23:44.701Z,96862.09
2023-02-25T13:26:46.301Z,96856.81
2023-02-25T13:29:42.405Z,96860.66
2023-02-25T13:32:27.582Z,96866.25
2023-02-25T13:35:36.152Z,96868.84
2023-02-25T13:38:24.993Z,96871.22
2023-02-25T13:41:20.392Z,96883.91
2023-02-25T13:44:18.711Z,96882.22
2023-02-25T13:47:05.545Z,96876.94
2023-02-25T13:50:29.280Z,96870.31
2023-02-25T13:53:33.851Z,96855.88
2023-02-25T13:56:32.066Z,96854.25
2023-02-25T13:59:32.111Z,96865.59
2023-02-25T14:02:24.342Z,96858.25
2023-02-25T14:05:32.390Z,96853.91
2023-02-25T14:08:27.895Z,96858.41
2023-02-25T14:11:18.739Z,96856.03
2023-02-25T14:14:28.348Z,96858.72
2023-02-25T14:17:25.130Z,96845.38
2023-02-25T14:20:20.377Z,96842.56
2023-02-25T14:22:57.171Z,96843.28
2023-02-25T14:25:52.864Z,96839.94
2023-02-25T14:28:36.479Z,96849.06
2023-02-25T14:31:23.168Z,96850.50
2023-02-25T14:34:24.927Z,96850.56
2023-02-25T14:37:26.390Z,96856.16
2023-02-25T14:40:27.206Z,96857.44
2023-02-25T14:43:29.215Z,96862.69
2023-02-25T14:46:13.561Z,96858.72
2023-02-25T14:48:55.219Z,96855.34
2023-02-25T14:51:57.737Z,96857.38
2023-02-25T14:55:26.069Z,96862.69
2023-02-25T14:58:41.274Z,96859.56
2023-02-25T15:01:41.185Z,96868.16
2023-02-25T15:04:56.799Z,96870.34
2023-02-25T15:08:02.185Z,96874.78
2023-02-25T15:10:49.659Z,96864.88
2023-02-25T15:14:28.135Z,96872.34
2023-02-25T15:17:23.219Z,96870.69
2023-02-25T15:20:10.987Z,96878.31
2023-02-25T15:23:04.964Z,96874.28
2023-02-25T15:25:45.943Z,96883.97
2023-02-25T15:28:41.554Z,96883.09
2023-02-25T15:31:34.042Z,96876.63
2023-02-25T15:34:34.315Z,96882.03
2023-02-25T15:37:32.183Z,96884.56
2023-02-25T15:40:49.028Z,96884.94
2023-02-25T15:43:44.692Z,96881.09
2023-02-25T15:46:44.284Z,96884.56
2023-02-25T15:49:32.995Z,96892.47
2023-02-25T15:52:07.524Z,96879.69
2023-02-25T15:54:50.784Z,96891.88
2023-02-25T15:57:38.597Z,96892.38
2023-02-25T16:00:52.990Z,96892.72
2023-02-25T16:03:40.908Z,96897.72
2023-02-25T16:06:20.024Z,96903.69
2023-02-25T16:08:58.952Z,96914.06
2023-02-25T16:11:38.749Z,96937.22
2023-02-25T16:14:19.584Z,96951.88
2023-02-25T16:16:57.832Z,96972.13
2023-02-25T16:19:39.254Z,96983.22
2023-02-25T16:22:18.029Z,96973.88
2023-02-25T16:24:54.867Z,96986.19
2023-02-25T16:27:46.703Z,96983.69
2023-02-25T16:30:27.080Z,96990.75
2023-02-25T16:33:12.884Z,96981.66
2023-02-25T16:36:02.649Z,96990.44
2023-02-25T16:38:47.907Z,96993.38
2023-02-25T16:41:27.865Z,96998.56
2023-02-25T16:44:04.478Z,96998.75
2023-02-25T16:46:41.459Z,97005.22
2023-02-25T16:49:22.415Z,97008.41
2023-02-25T16:51:58.145Z,97004.16
2023-02-25T16:54:36.560Z,97022.06
2023-02-25T16:57:21.774Z,97017.25
2023-02-25T17:00:15.128Z,97014.06
2023-02-25T17:02:53.669Z,97017.63
2023-02-25T17:05:32.302Z,97018.41
2023-02-25T17:08:15.598Z,97016.88
2023-02-25T17:10:55.957Z,97021.63
2023-02-25T17:13:32.796Z,97010.81
2023-02-25T17:16:07.635Z,97019.72
2023-02-25T17:18:48.745Z,97019.41
2023-02-25T17:21:26.552Z,97026.56
2023-02-25T17:24:03.275Z,97035.78
2023-02-25T17:26:41.059Z,97040.84
2023-02-25T17:29:16.827Z,97051.03
2023-02-25T17:31:53.005Z,97046.97
2023-02-25T17:34:31.360Z,97047.75
2023-02-25T17:37:07.604Z,97056.09
2023-02-25T17:39:44.255Z,97058.41
2023-02-25T17:42:30.705Z,97057.53
2023-02-25T17:45:07.256Z,97060.94
2023-02-25T17:47:44.600Z,97068.50
2023-02-25T17:50:30.140Z,97086.13
2023-02-25T17:53:03.217Z,97095.09
2023-02-25T17:55:37.606Z,97106.56
2023-02-25T17:58:24.040Z,97110.59
2023-02-25T18:01:02.699Z,97111.34
2023-02-25T18:03:46.705Z,97124.91
2023-02-25T18:06:34.741Z,97128.56
2023-02-25T18:09:29.271Z,97132.22
2023-02-25T18:12:05.750Z,97130.44
2023-02-25T18:14:41.430Z,97117.13
2023-02-25T18:17:24.190Z,97108.84
2023-02-25T18:20:00.342Z,97126.53
2023-02-25T18:22:38.404Z,97127.59
2023-02-25T18:25:31.093Z,97130.09
2023-02-25T18:28:08.004Z,97126.97
2023-02-25T18:30:41.361Z,97127.97
2023-02-25T18:33:14.947Z,97131.88
2023-02-25T18:35:49.349Z,97141.97
2023-02-25T18:38:26.022Z,97137.78
2023-02-25T18:40:59.560Z,97139.78
2023-02-25T18:43:37.034Z,97134.31
2023-02-25T18:46:10.534Z,97138.88
2023-02-25T18:48:43.488Z,97136.38
2023-02-25T18:51:16.582Z,97146.28
2023-02-25T18:53:49.535Z,97139.69
2023-02-25T18:56:22.949Z,97153.88
2023-02-25T18:58:57.960Z,97144.00
2023-02-25T19:01:33.845Z,97148.81
2023-02-25T19:04:06.903Z,97145.88
2023-02-25T19:06:39.891Z,97158.59
2023-02-25T19:09:12.898Z,97158.25
2023-02-25T19:11:46.696Z,97162.94
2023-02-25T19:14:22.833Z,97167.22
2023-02-25T19:16:57.323Z,97161.66
2023-02-25T19:19:30.422Z,97168.22
2023-02-25T19:22:03.435Z,97168.69
2023-02-25T19:24:36.427Z,97174.19
2023-02-25T19:27:21.767Z,97180.56
2023-02-25T19:29:58.736Z,97181.44
2023-02-25T19:32:31.702Z,97182.00
2023-02-25T19:35:05.333Z,97185.59
2023-02-25T19:37:40.684Z,97186.00
2023-02-25T19:40:16.866Z,97196.75
2023-02-25T19:42:50.160Z,97192.81
2023-02-25T19:45:26.317Z,97198.34
2023-02-25T19:47:59.797Z,97203.00
2023-02-25T19:50:34.808Z,97204.22
2023-02-25T19:53:07.799Z,97209.28
2023-02-25T19:55:40.804Z,97217.63
2023-02-25T19:58:13.763Z,97214.09
2023-02-25T20:00:48.118Z,97215.31
2023-02-25T20:03:21.132Z,97219.13
2023-02-25T20:05:54.096Z,97230.28
2023-02-25T20:08:27.214Z,97237.38
2023-02-25T20:11:00.209Z,97244.84
2023-02-25T20:13:33.143Z,97239.00
2023-02-25T20:16:09.162Z,97247.44
2023-02-25T20:18:42.219Z,97246.44
2023-02-25T20:21:15.218Z,97250.50
2023-02-25T20:23:48.193Z,97261.09
2023-02-25T20:26:24.261Z,97257.38
2023-02-25T20:28:58.418Z,97259.34
2023-02-25T20:31:32.929Z,97270.22
2023-02-25T20:34:06.878Z,97270.47
2023-02-25T20:36:45.322Z,97268.97
2023-02-25T20:39:44.285Z,97270.06
2023-02-25T20:42:20.672Z,97269.59
2023-02-25T20:44:54.737Z,97270.22
2023-02-25T20:47:31.896Z,97276.28
2023-02-25T20:50:08.546Z,97278.56
2023-02-25T20:52:41.736Z,97281.81
2023-02-25T20:55:14.875Z,97285.13
2023-02-25T20:57:47.877Z,97287.25
2023-02-25T21:00:22.010Z,97284.25
2023-02-25T21:02:56.373Z,97290.25
2023-02-25T21:05:29.377Z,97291.66
2023-02-25T21:08:02.356Z,97293.31
2023-02-25T21:10:35.379Z,97284.88
2023-02-25T21:13:08.439Z,97305.16
2023-02-25T21:15:41.387Z,97287.75
2023-02-25T21:18:15.728Z,97293.06
2023-02-25T21:20:48.694Z,97295.06
2023-02-25T21:23:21.666Z,97296.72
2023-02-25T21:25:55.288Z,97296.72
2023-02-25T21:28:29.518Z,97302.00
2023-02-25T21:31:05.604Z,97294.56
2023-02-25T21:33:40.942Z,97305.53
2023-02-25T21:36:13.956Z,97308.81
2023-02-25T21:38:46.932Z,97306.78
2023-02-25T21:41:20.032Z,97312.13
2023-02-25T21:43:53.810Z,97307.97
2023-02-25T21:46:27.697Z,97306.47
2023-02-25T21:49:02.236Z,97318.81
2023-02-25T21:51:35.251Z,97319.97
2023-02-25T21:54:09.066Z,97330.28
2023-02-25T21:56:42.420Z,97332.56
2023-02-25T21:59:17.258Z,97326.28
2023-02-25T22:01:50.914Z,97327.03
2023-02-25T22:04:25.299Z,97328.81
2023-02-25T22:06:58.337Z,97330.81
2023-02-25T22:09:31.295Z,97335.06
2023-02-25T22:12:04.281Z,97326.53
2023-02-25T22:14:37.267Z,97327.78
2023-02-25T22:17:10.249Z,97331.94
2023-02-25T22:19:44.574Z,97328.03
2023-02-25T22:22:17.593Z,97333.00
2023-02-25T22:24:50.601Z,97326.22
2023-02-25T22:27:23.690Z,97323.19
2023-02-25T22:29:56.697Z,97322.81
2023-02-25T22:32:29.711Z,97321.66
2023-02-25T22:35:04.161Z,97324.47
2023-02-25T22:37:37.175Z,97323.84
2023-02-25T22:40:11.991Z,97323.47
2023-02-25T22:42:44.974Z,97326.25
2023-02-25T22:45:18.099Z,97327.63
2023-02-25T22:47:51.069Z,97331.50
2023-02-25T22:50:27.248Z,97336.53
2023-02-25T22:53:00.197Z,97337.03
2023-02-25T22:55:34.812Z,97343.16
2023-02-25T22:58:07.751Z,97343.66
2023-02-25T23:00:43.296Z,97346.34
2023-02-25T23:03:16.310Z,97342.56
2023-02-25T23:05:54.299Z,97345.72
2023-02-25T23:08:28.304Z,97349.84
2023-02-25T23:11:10.030Z,97347.63
2023-02-25T23:13:47.403Z,97351.16
2023-02-25T23:16:24.518Z,97349.56
2023-02-25T23:18:59.727Z,97352.34
2023-02-25T23:21:38.506Z,97353.31
2023-02-25T23:24:16.636Z,97360.41
2023-02-25T23:26:53.613Z,97353.91
2023-02-25T23:29:26.636Z,97361.75
2023-02-25T23:31:59.678Z,97360.53
2023-02-25T23:34:32.714Z,97356.66
2023-02-25T23:37:07.310Z,97360.19
2023-02-25T23:39:40.738Z,97365.72
2023-02-25T23:42:13.730Z,97368.75
2023-02-25T23:44:46.733Z,97365.28
2023-02-25T23:47:20.190Z,97362.69
2023-02-25T23:49:53.179Z,97361.81
2023-02-25T23:52:27.674Z,97365.72
2023-02-25T23:55:00.933Z,97365.03
2023-02-25T23:57:34.090Z,97368.16
